Cabinda, Angola
Current Conditions -  °F | °C
As of 8:00 PM on Tuesday 21 Oct 2014 (Local Time) from FCPP Reporting Station
Broken Clouds Broken Clouds  
Wind Chill: 79°   Ceiling: 2300
Heat Index: 82°   Visibility: 6mi
Dew Point: 73°   Wind: 12mph
Humidity: 83%   Direction: 180°S
Pressure: 29.88"   Gusts: NA
Location:  5.55°S, 12.19°E
Report Text: FCPP 211900Z 18010KT 130V200 9999 SCT010 BKN023 26/23 Q1012 NOSIG
Loading
Personal Weather Stations






























Interactive Weather Map
Tropical Storm Tracking
New forecast layout! Learn more

10-Day Weather Forecast

Advertisements
Track Severe Weather on mobile